Time;durP1;ratioP1;P1;durP2;ratioP2;P2;SDS_P1;SDS_P2;PMS_P1;PMS_P2;Temp;Humidity;BMP_temperature;BMP_pressure;BME280_temperature;BME280_humidity;BME280_pressure;Samples;Min_cycle;Max_cycle;Signal;HPM_P1;HPM_P2
2022/05/16 00:01:57;;;;;;;11.95;6.30;;;;;;;11.65;92.75;95563.66;5049680;28;20037;-77
2022/05/16 00:04:23;;;;;;;9.10;6.43;;;;;;;11.56;92.43;95555.50;5046266;28;20483;-77
2022/05/16 00:06:48;;;;;;;10.95;6.30;;;;;;;11.52;91.69;95565.06;5031261;28;20107;-77
2022/05/16 00:09:14;;;;;;;16.10;6.57;;;;;;;11.41;92.18;95574.06;5045828;28;20044;-77
2022/05/16 00:11:40;;;;;;;10.52;6.78;;;;;;;11.38;91.89;95569.34;5050826;28;20041;-77
2022/05/16 00:14:06;;;;;;;10.05;6.47;;;;;;;11.44;91.87;95578.78;5050272;28;20190;-77
2022/05/16 00:16:32;;;;;;;12.93;6.88;;;;;;;11.43;91.68;95582.47;5050109;28;20045;-78
2022/05/16 00:18:58;;;;;;;13.25;7.13;;;;;;;11.36;91.65;95587.25;5049321;28;20146;-77
2022/05/16 00:21:24;;;;;;;14.07;6.80;;;;;;;11.29;92.42;95582.28;5050616;28;20044;-77
2022/05/16 00:23:49;;;;;;;12.45;7.22;;;;;;;11.32;91.92;95581.75;5050341;28;20045;-77
2022/05/16 00:26:14;;;;;;;15.25;6.88;;;;;;;11.36;91.33;95577.50;5049694;28;20037;-77
2022/05/16 00:28:40;;;;;;;10.55;6.50;;;;;;;11.23;92.12;95578.91;5050407;28;20051;-78
2022/05/16 00:31:06;;;;;;;12.02;7.32;;;;;;;11.23;92.35;95571.00;5049676;28;20048;-77
2022/05/16 00:33:32;;;;;;;15.30;7.00;;;;;;;11.18;93.13;95576.28;5050503;28;20086;-78
2022/05/16 00:35:58;;;;;;;12.05;6.70;;;;;;;11.19;92.88;95572.63;5050587;28;20049;-78
2022/05/16 00:38:23;;;;;;;12.85;6.50;;;;;;;11.17;93.36;95574.72;5049438;28;20103;-77
2022/05/16 00:40:49;;;;;;;14.35;7.30;;;;;;;11.22;93.37;95566.78;5050529;28;20045;-77
2022/05/16 00:43:24;;;;;;;12.77;7.00;;;;;;;11.27;93.52;95569.38;5050641;28;20564;-78
2022/05/16 00:45:50;;;;;;;9.90;6.95;;;;;;;11.19;93.99;95572.63;5053811;28;20045;-78
2022/05/16 00:48:16;;;;;;;12.77;7.38;;;;;;;11.23;94.13;95572.84;5052314;28;20135;-77
2022/05/16 00:50:42;;;;;;;15.15;7.45;;;;;;;11.19;94.63;95577.88;5053623;28;21555;-77
2022/05/16 00:53:09;;;;;;;11.55;7.20;;;;;;;11.18;94.41;95576.28;5036044;28;20162;-77
2022/05/16 00:55:37;;;;;;;10.35;6.80;;;;;;;11.13;94.82;95573.69;5054226;28;20509;-77
2022/05/16 00:58:12;;;;;;;10.63;7.20;;;;;;;11.09;94.78;95567.38;5053244;28;20790;-78
2022/05/16 01:00:40;;;;;;;10.02;7.03;;;;;;;11.04;94.36;95570.03;5052821;28;20041;-77
2022/05/16 01:05:53;;;;;;;15.45;7.18;;;;;;;11.01;94.85;95575.84;5053933;28;20498;-77
2022/05/16 01:08:25;;;;;;;12.80;7.38;;;;;;;11.04;94.90;95570.03;5053500;28;20076;-78
2022/05/16 01:10:57;;;;;;;10.68;7.43;;;;;;;10.92;95.34;95578.25;5052647;28;20045;-78
2022/05/16 01:13:25;;;;;;;13.15;7.15;;;;;;;10.92;95.02;95580.88;5053365;28;20041;-77
2022/05/16 01:15:51;;;;;;;12.60;7.60;;;;;;;10.90;94.58;95575.91;5053362;28;20037;-77
2022/05/16 01:18:20;;;;;;;11.95;7.00;;;;;;;10.86;95.14;95580.13;5042959;28;20489;-77
2022/05/16 01:21:05;;;;;;;13.27;7.32;;;;;;;10.90;95.16;95578.53;5047069;28;20041;-78
2022/05/16 01:23:33;;;;;;;;;;;;;;;10.88;95.42;95578.00;5053915;28;20051;-78
2022/05/16 01:26:04;;;;;;;14.35;8.18;;;;;;;10.79;96.12;95577.00;5052781;28;19944;-78
2022/05/16 01:28:29;;;;;;;14.20;7.80;;;;;;;10.82;95.78;95584.34;5053291;28;20052;-78
2022/05/16 01:30:55;;;;;;;12.50;7.63;;;;;;;10.80;96.69;95586.44;5034532;28;20414;-77
2022/05/16 01:33:24;;;;;;;12.23;7.57;;;;;;;10.76;97.75;95580.16;5050036;28;20413;-77
2022/05/16 01:35:51;;;;;;;12.98;7.70;;;;;;;10.86;96.38;95585.38;5035971;28;20587;-77
2022/05/16 01:38:18;;;;;;;11.23;7.63;;;;;;;10.84;97.43;95587.47;5033770;28;20395;-77
2022/05/16 01:41:06;;;;;;;17.67;8.00;;;;;;;10.77;96.36;95591.47;5053607;28;20041;-77
2022/05/16 01:43:38;;;;;;;15.23;8.13;;;;;;;10.70;97.39;95591.75;5052973;28;20091;-77
2022/05/16 01:46:05;;;;;;;13.77;7.68;;;;;;;10.66;98.42;95588.06;5052443;28;20074;-77
2022/05/16 01:48:31;;;;;;;12.82;7.55;;;;;;;10.73;98.83;95591.19;5034968;28;20064;-78
2022/05/16 01:51:01;;;;;;;17.17;8.23;;;;;;;10.72;97.87;95600.19;5051400;28;20445;-77
2022/05/16 01:53:28;;;;;;;12.32;8.05;;;;;;;10.61;97.41;95603.88;5052806;28;20051;-78
2022/05/16 01:55:54;;;;;;;14.38;8.15;;;;;;;10.58;96.71;95610.47;5033712;28;20177;-77
2022/05/16 01:58:20;;;;;;;12.80;8.00;;;;;;;10.60;96.04;95612.81;5052551;28;20071;-77
2022/05/16 02:00:46;;;;;;;14.40;7.78;;;;;;;10.53;96.36;95603.38;5052568;28;20033;-77
2022/05/16 02:03:11;;;;;;;14.93;8.15;;;;;;;10.60;96.77;95602.28;5052909;28;20534;-77
2022/05/16 02:05:37;;;;;;;14.40;8.45;;;;;;;10.61;96.73;95606.50;5032990;28;20041;-78
2022/05/16 02:08:04;;;;;;;11.85;7.95;;;;;;;10.58;96.70;95605.97;5033045;28;20050;-77
2022/05/16 02:10:30;;;;;;;13.07;8.10;;;;;;;10.67;96.40;95608.06;5045194;28;20120;-77
2022/05/16 02:12:57;;;;;;;14.70;7.90;;;;;;;10.67;96.41;95614.13;5034476;28;20133;-78
2022/05/16 02:15:26;;;;;;;16.17;8.05;;;;;;;10.70;95.55;95613.59;5051023;28;20048;-78
2022/05/16 02:17:51;;;;;;;13.60;7.78;;;;;;;10.64;96.15;95598.09;5052339;28;20036;-77
2022/05/16 02:20:17;;;;;;;18.23;8.35;;;;;;;10.70;96.21;95607.53;5051811;28;20056;-77
2022/05/16 02:25:28;;;;;;;13.90;8.60;;;;;;;10.72;96.29;95595.69;5052250;28;20467;-77
2022/05/16 02:27:54;;;;;;;14.25;8.35;;;;;;;10.72;96.38;95581.75;5051422;28;20041;-78
2022/05/16 02:30:21;;;;;;;15.98;8.95;;;;;;;10.68;97.35;95581.47;5051399;28;20044;-78
2022/05/16 02:32:48;;;;;;;16.08;9.00;;;;;;;10.80;97.25;95593.56;5052322;28;20251;-77
2022/05/16 02:35:15;;;;;;;11.70;8.05;;;;;;;10.91;97.30;95598.50;5052130;28;20044;-77
2022/05/16 02:37:41;;;;;;;18.75;8.55;;;;;;;11.08;96.27;95598.19;5051989;28;20516;-77
2022/05/16 02:40:08;;;;;;;12.70;7.90;;;;;;;10.99;96.56;95593.75;5051115;28;20092;-78
2022/05/16 02:42:33;;;;;;;14.52;8.05;;;;;;;10.98;96.98;95594.84;5051817;28;20044;-77
2022/05/16 02:44:59;;;;;;;15.50;8.32;;;;;;;10.98;97.85;95592.19;5051964;28;20056;-78
2022/05/16 02:47:24;;;;;;;17.77;8.75;;;;;;;11.00;98.76;95595.34;5051570;28;20044;-77
2022/05/16 02:49:51;;;;;;;11.88;8.38;;;;;;;11.06;98.44;95594.25;5025797;28;20065;-78
2022/05/16 02:52:17;;;;;;;14.13;8.45;;;;;;;11.14;98.61;95591.06;5051483;28;20029;-78
2022/05/16 02:54:43;;;;;;;13.38;8.80;;;;;;;11.14;98.83;95580.53;5033842;28;20036;-78
2022/05/16 02:57:09;;;;;;;16.70;8.68;;;;;;;11.21;98.95;95596.03;5050406;28;20095;-78
2022/05/16 02:59:36;;;;;;;13.73;8.90;;;;;;;11.22;98.82;95614.22;5046463;28;20038;-78
2022/05/16 03:02:05;;;;;;;14.27;8.68;;;;;;;11.39;96.67;95610.44;5048903;28;20041;-77
2022/05/16 03:04:32;;;;;;;15.32;8.27;;;;;;;11.45;96.77;95588.28;5051701;28;20045;-78
2022/05/16 03:06:58;;;;;;;16.75;8.23;;;;;;;11.47;97.23;95599.31;5032991;28;20064;-78
2022/05/16 03:09:26;;;;;;;12.00;8.55;;;;;;;11.56;97.15;95587.13;5031893;28;20044;-77
2022/05/16 03:11:53;;;;;;;15.02;8.52;;;;;;;11.52;97.18;95596.69;5051844;28;20041;-78
2022/05/16 03:14:19;;;;;;;15.13;8.88;;;;;;;11.60;96.65;95590.81;5050960;28;20040;-78
2022/05/16 03:16:45;;;;;;;17.42;8.63;;;;;;;11.57;96.80;95588.72;5051449;28;20037;-78
2022/05/16 03:19:11;;;;;;;15.18;8.45;;;;;;;11.67;97.71;95587.09;5049165;28;20447;-78
2022/05/16 03:21:37;;;;;;;13.88;9.00;;;;;;;11.70;97.90;95586.53;5050860;28;20498;-78
2022/05/16 03:24:04;;;;;;;13.07;8.50;;;;;;;11.68;97.79;95588.66;5050359;28;20052;-78
2022/05/16 03:26:29;;;;;;;17.95;8.02;;;;;;;11.64;97.71;95582.34;5050151;28;20045;-78
2022/05/16 03:28:55;;;;;;;14.13;8.43;;;;;;;11.70;98.30;95573.38;5032557;28;20033;-78
2022/05/16 03:31:20;;;;;;;16.15;7.65;;;;;;;11.82;98.81;95579.06;5048848;28;20098;-78
2022/05/16 03:33:46;;;;;;;12.27;7.93;;;;;;;11.84;99.12;95571.69;5050585;28;20510;-78
2022/05/16 03:36:12;;;;;;;12.20;8.25;;;;;;;11.84;98.85;95576.94;5051075;28;20044;-78
2022/05/16 03:41:23;;;;;;;13.32;8.18;;;;;;;11.83;98.68;95585.13;5049896;28;20045;-77
2022/05/16 03:43:50;;;;;;;13.13;8.20;;;;;;;11.89;99.59;95579.53;5050828;28;20080;-78
2022/05/16 03:46:17;;;;;;;12.10;8.05;;;;;;;11.91;99.13;95574.78;5049496;28;20033;-77
2022/05/16 03:48:44;;;;;;;12.63;8.25;;;;;;;11.83;99.25;95583.28;5050497;28;20041;-77
2022/05/16 03:51:12;;;;;;;16.02;8.32;;;;;;;11.83;99.75;95585.91;5049699;28;20059;-78
2022/05/16 03:53:47;;;;;;;16.02;9.00;;;;;;;11.81;100.00;95588.06;5033216;28;20124;-78
2022/05/16 03:56:20;;;;;;;12.65;8.25;;;;;;;11.81;100.00;95593.31;5050854;28;20041;-78
2022/05/16 03:58:46;;;;;;;14.65;8.52;;;;;;;11.85;100.00;95589.09;5049554;28;20033;-78
2022/05/16 04:01:12;;;;;;;17.05;9.05;;;;;;;11.91;100.00;95601.16;5031962;28;20052;-78
2022/05/16 04:03:38;;;;;;;17.85;9.43;;;;;;;11.99;100.00;95604.31;5050326;28;20069;-77
2022/05/16 04:06:04;;;;;;;18.52;9.27;;;;;;;12.01;99.70;95602.16;5050236;28;20367;-78
2022/05/16 04:08:31;;;;;;;18.08;8.90;;;;;;;12.04;99.18;95596.31;5050162;28;20558;-78
2022/05/16 04:10:57;;;;;;;14.18;8.98;;;;;;;12.05;100.00;95603.19;5048803;28;20037;-78
2022/05/16 04:13:23;;;;;;;15.82;8.73;;;;;;;12.12;100.00;95604.47;5050116;28;20754;-78
2022/05/16 04:15:49;;;;;;;16.08;8.63;;;;;;;12.21;98.35;95602.03;5051021;28;20052;-77
2022/05/16 04:18:14;;;;;;;18.52;9.20;;;;;;;12.15;98.15;95602.31;5050681;28;20068;-78
2022/05/16 04:20:40;;;;;;;14.70;8.82;;;;;;;12.19;99.14;95598.84;5053170;28;20041;-77
2022/05/16 04:23:09;;;;;;;15.35;9.13;;;;;;;12.38;99.42;95595.53;5036289;28;20053;-77
2022/05/16 04:25:37;;;;;;;12.85;8.45;;;;;;;12.47;98.97;95596.50;5053137;28;20473;-78
2022/05/16 04:28:07;;;;;;;14.05;8.43;;;;;;;12.40;99.44;95598.69;5053430;28;20108;-78
2022/05/16 04:30:34;;;;;;;12.38;8.50;;;;;;;12.37;99.82;95591.31;5053334;28;20626;-78
2022/05/16 04:32:59;;;;;;;17.25;8.93;;;;;;;12.37;99.97;95599.22;5054206;28;20040;-77
2022/05/16 04:35:25;;;;;;;12.75;8.93;;;;;;;12.39;100.00;95591.84;5054030;28;20044;-78
2022/05/16 04:37:51;;;;;;;14.48;9.68;;;;;;;12.45;100.00;95598.63;5035177;28;20032;-78
2022/05/16 04:40:18;;;;;;;15.10;8.30;;;;;;;12.51;100.00;95604.66;5036356;28;20044;-78
2022/05/16 04:42:46;;;;;;;15.23;8.45;;;;;;;12.49;99.93;95594.38;5036039;28;20098;-78
2022/05/16 04:45:16;;;;;;;14.38;8.60;;;;;;;12.57;99.97;95599.03;5049555;28;20112;-78
2022/05/16 04:47:44;;;;;;;14.63;8.90;;;;;;;12.58;100.00;95600.59;5042496;28;20437;-78
2022/05/16 04:50:12;;;;;;;14.07;8.70;;;;;;;12.76;100.00;95601.75;5053616;28;20033;-78
2022/05/16 04:52:38;;;;;;;13.55;8.90;;;;;;;12.80;100.00;95601.97;5054223;28;20041;-77
2022/05/16 04:55:05;;;;;;;14.48;9.45;;;;;;;12.81;100.00;95600.91;5053063;28;20044;-78
2022/05/16 04:57:30;;;;;;;13.98;8.75;;;;;;;12.84;99.80;95592.41;5035317;28;20080;-77
2022/05/16 04:59:56;;;;;;;16.30;8.95;;;;;;;12.92;100.00;95604.22;5052866;28;20041;-77
2022/05/16 05:02:22;;;;;;;17.80;9.23;;;;;;;12.95;100.00;95604.44;5054184;28;20068;-77
2022/05/16 05:04:48;;;;;;;17.85;8.77;;;;;;;13.00;100.00;95606.22;5036558;28;20048;-78
2022/05/16 05:07:14;;;;;;;15.90;9.32;;;;;;;13.07;100.00;95600.63;5052252;28;20041;-77
2022/05/16 05:15:11;;;;;;;15.02;9.05;;;;;;;13.27;97.90;95600.34;5054012;28;19924;-77
2022/05/16 05:17:37;;;;;;;15.13;9.60;;;;;;;13.32;97.95;95608.22;5048817;28;20620;-78
2022/05/16 05:20:04;;;;;;;15.50;8.55;;;;;;;13.39;98.39;95607.13;5049189;28;20410;-78
2022/05/16 05:22:30;;;;;;;16.92;8.55;;;;;;;13.43;98.84;95608.13;5053260;28;20120;-77
2022/05/16 05:24:56;;;;;;;17.52;9.05;;;;;;;13.49;100.00;95607.00;5043019;28;20049;-77
2022/05/16 05:27:21;;;;;;;19.08;9.23;;;;;;;13.58;99.92;95615.84;5021422;28;20089;-77
2022/05/16 05:29:52;;;;;;;16.80;9.25;;;;;;;13.59;100.00;95609.50;5051661;28;20041;-77
2022/05/16 05:32:18;;;;;;;16.85;9.48;;;;;;;13.74;99.40;95618.28;5052604;28;20044;-77
2022/05/16 05:34:43;;;;;;;16.20;9.23;;;;;;;13.82;99.65;95609.69;5053244;28;20052;-78
2022/05/16 05:37:09;;;;;;;15.18;9.18;;;;;;;13.83;100.00;95611.28;5051387;28;20560;-78
2022/05/16 05:39:35;;;;;;;16.55;8.73;;;;;;;13.96;99.62;95610.53;5051526;28;20697;-77
2022/05/16 05:42:01;;;;;;;14.32;8.98;;;;;;;14.07;100.00;95610.41;5052867;28;20047;-77
2022/05/16 05:44:27;;;;;;;19.13;9.02;;;;;;;14.06;100.00;95608.81;5048698;28;20052;-78
2022/05/16 05:46:53;;;;;;;15.93;9.77;;;;;;;14.08;100.00;95611.94;5034738;28;20049;-78
2022/05/16 05:49:19;;;;;;;12.00;8.65;;;;;;;14.12;100.00;95602.38;5050612;28;20041;-77
2022/05/16 05:51:44;;;;;;;13.48;8.95;;;;;;;14.13;100.00;95609.25;5053439;28;20402;-77
2022/05/16 05:54:10;;;;;;;17.58;8.77;;;;;;;14.18;100.00;95601.22;5052790;28;20048;-77
2022/05/16 05:56:37;;;;;;;16.60;8.70;;;;;;;14.23;100.00;95614.38;5034821;28;20039;-77
2022/05/16 05:59:03;;;;;;;20.38;9.38;;;;;;;14.25;100.00;95617.53;5052653;28;20552;-78
2022/05/16 06:01:29;;;;;;;20.17;9.63;;;;;;;14.25;100.00;95625.47;5051446;28;20138;-77
2022/05/16 06:03:55;;;;;;;16.95;9.52;;;;;;;14.28;100.00;95622.22;5052853;28;20638;-77
2022/05/16 06:06:21;;;;;;;17.67;9.90;;;;;;;14.57;100.00;95629.16;5052788;28;20513;-78
2022/05/16 06:08:46;;;;;;;19.05;9.85;;;;;;;14.80;98.54;95624.81;5051165;28;20029;-77
2022/05/16 06:11:11;;;;;;;17.00;9.30;;;;;;;14.94;98.10;95627.47;5052683;28;20448;-77
2022/05/16 06:13:38;;;;;;;16.92;9.40;;;;;;;15.09;98.52;95634.34;5052420;28;20040;-77
2022/05/16 06:16:06;;;;;;;20.02;9.63;;;;;;;15.14;97.76;95630.81;5034560;28;20047;-77
2022/05/16 06:18:32;;;;;;;16.27;9.70;;;;;;;15.14;97.16;95631.59;5050618;28;20112;-78
2022/05/16 06:20:57;;;;;;;19.23;9.73;;;;;;;15.21;97.40;95620.59;5052036;28;20037;-78
2022/05/16 06:23:23;;;;;;;17.45;10.25;;;;;;;15.37;94.67;95629.81;5051810;28;20051;-77
2022/05/16 06:25:49;;;;;;;17.02;9.48;;;;;;;15.73;92.35;95630.91;5052436;28;20490;-78
2022/05/16 06:28:20;;;;;;;16.60;9.50;;;;;;;16.03;90.78;95640.09;5051066;28;20033;-78
2022/05/16 06:30:48;;;;;;;18.75;9.60;;;;;;;16.23;88.50;95633.53;5050678;28;20056;-77
2022/05/16 06:33:15;;;;;;;19.45;9.30;;;;;;;16.34;90.45;95642.03;5052471;28;20045;-77
2022/05/16 06:35:42;;;;;;;19.15;10.52;;;;;;;16.53;90.13;95641.06;5052178;28;20036;-77
2022/05/16 06:38:23;;;;;;;14.77;9.48;;;;;;;16.77;89.33;95644.13;5051354;28;20041;-78
2022/05/16 06:40:49;;;;;;;15.73;9.15;;;;;;;16.86;90.53;95648.72;5032886;28;20049;-78
2022/05/16 06:43:17;;;;;;;16.95;9.88;;;;;;;17.00;87.74;95648.66;5050624;28;20056;-78
2022/05/16 06:45:42;;;;;;;14.95;9.23;;;;;;;17.13;89.89;95647.75;5051706;28;20041;-77
2022/05/16 06:48:08;;;;;;;15.35;9.82;;;;;;;17.24;87.04;95654.38;5050423;28;20060;-78
2022/05/16 06:50:36;;;;;;;17.90;8.75;;;;;;;17.34;87.00;95655.19;5051644;28;20457;-77
2022/05/16 06:53:03;;;;;;;15.70;9.18;;;;;;;17.46;89.10;95655.38;5051751;28;20045;-78
2022/05/16 06:55:29;;;;;;;13.77;9.10;;;;;;;17.49;89.50;95658.19;5051806;28;20052;-78
2022/05/16 06:57:55;;;;;;;15.90;10.15;;;;;;;17.68;88.05;95662.44;5050801;28;20052;-78
2022/05/16 07:00:21;;;;;;;16.42;9.80;;;;;;;17.84;86.88;95666.25;5050188;28;20037;-77
2022/05/16 07:02:53;;;;;;;14.63;9.55;;;;;;;17.92;87.02;95672.69;5088625;27;20393;-78
2022/05/16 07:05:18;;;;;;;14.95;9.13;;;;;;;18.05;89.61;95681.63;5086625;28;20041;-77
2022/05/16 07:07:44;;;;;;;17.90;9.10;;;;;;;18.07;89.09;95673.31;5083860;28;20047;-77
2022/05/16 07:10:10;;;;;;;18.60;9.48;;;;;;;18.18;90.34;95680.69;5068107;28;20119;-77
2022/05/16 07:12:36;;;;;;;22.67;9.32;;;;;;;18.22;84.99;95690.72;5069707;28;20079;-77
2022/05/16 07:15:03;;;;;;;17.98;9.05;;;;;;;18.35;85.16;95692.44;5068158;28;20086;-77
2022/05/16 07:17:28;;;;;;;20.52;9.05;;;;;;;18.60;80.19;95690.81;5069571;28;20068;-77
2022/05/16 07:19:54;;;;;;;19.70;9.07;;;;;;;18.57;80.28;95701.34;5067779;28;20045;-77
2022/05/16 07:22:22;;;;;;;19.85;8.82;;;;;;;18.76;78.45;95704.47;5070631;28;20045;-77
2022/05/16 07:24:50;;;;;;;19.80;8.95;;;;;;;18.87;78.67;95711.03;5087851;28;20047;-77
2022/05/16 07:30:00;;;;;;;21.23;10.02;;;;;;;19.01;76.74;95716.19;5067426;28;20064;-77
2022/05/16 07:32:33;;;;;;;17.98;9.10;;;;;;;19.14;74.37;95719.75;5065496;28;20430;-77
2022/05/16 07:35:04;;;;;;;17.50;8.77;;;;;;;19.21;73.97;95714.72;5076082;28;20044;-77
2022/05/16 07:37:31;;;;;;;17.95;7.43;;;;;;;19.31;71.45;95723.44;5084329;28;20390;-77
2022/05/16 07:39:58;;;;;;;18.02;8.15;;;;;;;19.31;72.32;95718.13;5079667;28;20456;-76
2022/05/16 07:42:24;;;;;;;12.27;7.05;;;;;;;19.35;70.55;95730.53;5072040;28;20040;-77
2022/05/16 07:44:50;;;;;;;10.60;6.47;;;;;;;19.54;66.16;95726.69;5088291;28;20669;-77
2022/05/16 07:47:16;;;;;;;10.93;5.53;;;;;;;19.71;65.21;95736.47;5075345;28;20040;-77
2022/05/16 07:49:41;;;;;;;13.18;5.60;;;;;;;19.79;65.89;95737.56;5066549;28;20094;-77
2022/05/16 07:52:08;;;;;;;9.88;5.45;;;;;;;19.93;64.76;95745.34;5066985;28;20041;-77
2022/05/16 07:54:34;;;;;;;18.63;6.07;;;;;;;19.92;63.47;95738.44;5066355;28;20064;-78
2022/05/16 07:57:02;;;;;;;15.77;5.80;;;;;;;19.71;64.56;95741.81;5076713;28;20131;-78
2022/05/16 07:59:28;;;;;;;10.73;5.95;;;;;;;19.81;64.29;95752.16;5085157;28;20040;-77
2022/05/16 08:01:54;;;;;;;13.82;5.93;;;;;;;19.76;65.02;95754.97;5071235;28;20055;-78
2022/05/16 08:04:19;;;;;;;14.07;6.30;;;;;;;19.92;66.07;95757.13;5068225;28;20064;-78
2022/05/16 08:06:45;;;;;;;13.77;7.03;;;;;;;19.93;65.28;95758.72;5076264;28;20052;-78
2022/05/16 08:11:55;;;;;;;10.20;5.45;;;;;;;19.98;65.59;95767.28;5069236;28;20056;-78
2022/05/16 08:14:21;;;;;;;20.17;6.90;;;;;;;20.22;64.99;95761.31;5056090;28;20045;-78
2022/05/16 08:16:47;;;;;;;15.40;6.65;;;;;;;20.34;65.01;95762.50;5054685;28;20048;-78
2022/05/16 08:19:13;;;;;;;10.23;5.68;;;;;;;20.65;63.47;95772.03;5069917;28;20267;-79
2022/05/16 08:21:41;;;;;;;13.88;5.35;;;;;;;20.68;62.90;95774.06;5059275;28;20049;-78
2022/05/16 08:24:09;;;;;;;28.90;5.50;;;;;;;20.79;61.29;95780.59;5054011;28;20041;-79
2022/05/16 08:26:36;;;;;;;9.02;4.90;;;;;;;20.66;61.07;95778.91;5055570;28;20120;-78
2022/05/16 08:29:03;;;;;;;12.63;5.15;;;;;;;20.64;60.96;95781.16;5055769;28;20037;-78
2022/05/16 08:31:29;;;;;;;30.80;5.82;;;;;;;20.47;62.13;95788.19;5057347;28;20053;-78
2022/05/16 08:33:56;;;;;;;19.65;5.18;;;;;;;20.59;61.60;95798.94;5054788;28;20045;-77
2022/05/16 08:41:55;;;;;;;55.60;6.28;;;;;;;20.86;61.32;95804.09;5056524;28;20041;-79
2022/05/16 08:44:29;;;;;;;28.02;5.35;;;;;;;20.56;62.11;95807.63;5055219;28;20041;-78
2022/05/16 08:46:59;;;;;;;25.13;5.30;;;;;;;20.57;62.08;95829.78;5054324;28;20052;-77
2022/05/16 08:49:57;;;;;;;21.42;5.40;;;;;;;20.50;62.21;95824.97;5061951;28;20112;-77
2022/05/16 08:52:31;;;;;;;16.50;4.97;;;;;;;20.33;61.89;95819.72;5054948;28;20049;-78
2022/05/16 08:55:25;;;;;;;106.65;9.32;;;;;;;20.13;63.31;95837.28;5052991;28;20112;-77
2022/05/16 08:57:57;;;;;;;17.27;4.40;;;;;;;20.07;62.46;95834.81;5061994;28;20517;-77
2022/05/16 09:00:28;;;;;;;45.78;5.57;;;;;;;19.77;63.41;95842.00;5068351;28;20048;-78
2022/05/16 09:02:56;;;;;;;33.35;5.82;;;;;;;19.82;63.40;95849.84;5055311;28;20383;-78
2022/05/16 09:05:29;;;;;;;10.20;4.40;;;;;;;19.68;64.01;95843.91;5053199;28;20470;-79
2022/05/16 09:07:57;;;;;;;7.88;5.10;;;;;;;19.70;64.55;95839.03;5054326;28;20061;-78
2022/05/16 09:10:57;;;;;;;11.13;4.60;;;;;;;19.79;64.16;95855.81;5069670;28;20048;-79
2022/05/16 09:13:47;;;;;;;12.75;4.70;;;;;;;19.58;66.06;95846.91;5070660;28;20121;-78
2022/05/16 09:16:38;;;;;;;85.07;7.05;;;;;;;19.48;66.20;95856.84;5070263;28;20050;-77
2022/05/16 09:19:16;;;;;;;29.50;5.10;;;;;;;19.34;67.41;95861.59;5065814;28;20385;-78
2022/05/16 09:22:05;;;;;;;10.50;4.80;;;;;;;19.45;66.42;95862.81;5051583;28;20045;-79
2022/05/16 09:24:41;;;;;;;31.65;5.43;;;;;;;19.36;68.23;95859.38;5069176;28;20498;-78
2022/05/16 09:28:34;;;;;;;39.00;5.60;;;;;;;19.33;67.91;95860.00;5070467;28;20040;-77
2022/05/16 09:30:05;;;;;;;9.98;4.88;;;;;;;19.28;68.50;95868.16;5060517;28;20072;-78
2022/05/16 09:32:36;;;;;;;11.95;5.22;;;;;;;19.19;68.68;95870.84;5067049;28;20058;-78
2022/05/16 09:35:04;;;;;;;11.13;4.57;;;;;;;19.07;69.08;95868.84;5070320;28;20115;-79
2022/05/16 09:37:30;;;;;;;9.15;4.57;;;;;;;19.07;68.61;95876.84;5071266;28;20067;-78
2022/05/16 09:39:56;;;;;;;12.27;4.57;;;;;;;19.07;69.22;95874.16;5069274;28;20494;-77
2022/05/16 09:42:26;;;;;;;9.93;4.55;;;;;;;19.04;69.16;95880.91;5065619;28;20036;-77
2022/05/16 09:44:58;;;;;;;11.75;4.90;;;;;;;19.07;68.74;95882.16;5055808;28;20112;-76
2022/05/16 09:47:35;;;;;;;7.93;4.85;;;;;;;19.11;68.92;95877.78;5065214;28;20086;-77
2022/05/16 09:50:21;;;;;;;9.30;4.78;;;;;;;19.06;69.46;95877.91;5070824;28;20052;-76
2022/05/16 09:53:02;;;;;;;9.90;4.80;;;;;;;19.18;69.36;95878.09;5067745;28;20501;-77
2022/05/16 09:55:53;;;;;;;7.50;4.80;;;;;;;19.23;68.99;95881.69;5065814;28;20055;-76
2022/05/16 09:58:22;;;;;;;8.70;4.72;;;;;;;19.26;69.35;95870.38;5051598;28;20052;-76
2022/05/16 10:01:01;;;;;;;10.45;4.90;;;;;;;19.33;68.90;95874.13;5049720;28;20073;-77
2022/05/16 10:03:42;;;;;;;10.80;5.30;;;;;;;19.39;68.07;95872.88;5057337;28;20039;-78
2022/05/16 10:06:26;;;;;;;12.85;4.90;;;;;;;19.37;68.85;95871.63;5070241;28;20044;-78
2022/05/16 10:08:52;;;;;;;7.90;4.50;;;;;;;19.55;68.75;95873.16;5052656;28;20037;-78
2022/05/16 10:11:22;;;;;;;9.93;4.60;;;;;;;19.54;68.91;95876.91;5064277;28;20041;-78
2022/05/16 10:13:49;;;;;;;7.88;4.75;;;;;;;19.56;67.99;95879.28;5071327;28;20044;-78
2022/05/16 10:16:16;;;;;;;8.38;4.35;;;;;;;19.55;67.46;95873.16;5071894;28;20087;-79
2022/05/16 10:18:50;;;;;;;7.85;4.55;;;;;;;19.62;67.61;95877.22;5069056;28;20032;-79
2022/05/16 10:21:27;;;;;;;7.22;3.95;;;;;;;19.48;67.45;95872.88;5060030;28;20585;-78
2022/05/16 10:23:55;;;;;;;13.85;3.90;;;;;;;19.40;69.02;95879.00;5056698;28;20052;-78
2022/05/16 10:26:24;;;;;;;5.55;3.65;;;;;;;19.35;68.67;95879.16;5052100;28;20057;-78
2022/05/16 10:29:06;;;;;;;7.70;4.10;;;;;;;19.31;70.85;95878.22;5052745;28;20063;-78
2022/05/16 10:34:42;;;;;;;10.40;3.90;;;;;;;18.92;69.63;95882.63;5052306;28;20123;-78
2022/05/16 10:37:08;;;;;;;6.22;4.00;;;;;;;18.80;70.27;95878.66;5055092;28;20036;-78
2022/05/16 10:39:38;;;;;;;9.02;4.28;;;;;;;18.67;71.50;95868.94;5067533;28;20041;-77
2022/05/16 10:42:17;;;;;;;10.10;4.20;;;;;;;18.55;73.71;95874.09;5072619;28;20044;-77
2022/05/16 10:45:04;;;;;;;7.70;4.28;;;;;;;18.43;75.81;95872.84;5054142;28;20049;-78
2022/05/16 10:47:45;;;;;;;8.48;4.10;;;;;;;18.27;76.43;95871.69;5051944;28;20033;-78
2022/05/16 10:50:21;;;;;;;9.57;4.30;;;;;;;18.06;79.73;95874.94;5052515;28;20069;-78
2022/05/16 10:53:04;;;;;;;9.90;4.30;;;;;;;18.03;82.09;95880.88;5051226;28;20045;-77
2022/05/16 10:55:41;;;;;;;9.35;4.38;;;;;;;17.94;83.97;95877.38;5051631;28;20068;-78
2022/05/16 10:58:25;;;;;;;8.70;4.68;;;;;;;17.92;85.49;95874.25;5061634;28;20044;-78
2022/05/16 11:01:07;;;;;;;7.60;4.45;;;;;;;17.89;85.03;95874.84;5061174;28;20104;-77
2022/05/16 11:03:35;;;;;;;7.50;4.13;;;;;;;17.89;83.54;95872.19;5051961;28;20041;-78
2022/05/16 11:06:26;;;;;;;9.55;4.13;;;;;;;17.92;83.60;95863.59;5051105;28;20076;-78
2022/05/16 11:09:09;;;;;;;8.77;4.28;;;;;;;17.98;87.45;95862.38;5051373;28;20041;-78
2022/05/16 11:11:46;;;;;;;9.65;4.20;;;;;;;18.20;87.91;95858.81;5067855;28;20123;-78
2022/05/16 11:14:18;;;;;;;9.48;3.92;;;;;;;18.38;83.82;95854.31;5066794;28;20102;-78
2022/05/16 11:16:45;;;;;;;8.40;3.97;;;;;;;18.40;82.47;95857.47;5051610;28;20048;-78
2022/05/16 11:19:29;;;;;;;6.88;3.55;;;;;;;18.59;81.46;95859.06;5057925;28;20506;-78
2022/05/16 11:22:04;;;;;;;7.05;3.80;;;;;;;18.71;78.60;95861.91;5062467;28;20497;-78
2022/05/16 11:24:34;;;;;;;7.93;3.80;;;;;;;19.08;79.07;95854.41;5070453;28;20070;-78
2022/05/16 11:27:07;;;;;;;7.50;3.65;;;;;;;19.29;75.74;95854.50;5067121;28;20120;-78
2022/05/16 11:29:57;;;;;;;8.35;4.07;;;;;;;19.36;73.67;95846.03;5050689;28;20090;-78
2022/05/16 11:32:23;;;;;;;6.80;3.50;;;;;;;19.17;77.26;95841.81;5063013;28;20049;-78
2022/05/16 11:35:14;;;;;;;6.93;3.65;;;;;;;19.42;75.36;95833.31;5071749;28;20067;-78
2022/05/16 11:38:08;;;;;;;8.40;3.33;;;;;;;19.67;72.99;95821.00;5062595;28;20037;-78
2022/05/16 11:40:38;;;;;;;8.88;3.33;;;;;;;19.61;73.23;95816.91;5067707;28;20166;-78
2022/05/16 11:43:23;;;;;;;7.22;3.45;;;;;;;19.77;74.31;95809.16;5068617;28;20417;-78
2022/05/16 11:46:23;;;;;;;7.82;3.70;;;;;;;19.79;69.25;95810.44;5052751;28;20076;-78
2022/05/16 11:49:12;;;;;;;6.35;3.35;;;;;;;20.13;70.55;95805.22;5054570;28;20052;-78
2022/05/16 11:51:50;;;;;;;7.68;3.58;;;;;;;20.25;68.07;95803.41;5054769;28;20080;-78
2022/05/16 11:54:21;;;;;;;7.68;3.47;;;;;;;20.48;69.30;95795.09;5055505;28;20045;-78
2022/05/16 12:03:11;;;;;;;7.22;3.58;;;;;;;21.51;62.36;95785.69;5053996;28;20068;-78
2022/05/16 12:05:36;;;;;;;8.80;3.58;;;;;;;22.12;61.40;95776.91;5054179;28;20045;-78
2022/05/16 12:08:14;;;;;;;5.60;3.35;;;;;;;22.29;58.31;95775.06;5064928;28;20465;-77
2022/05/16 12:10:57;;;;;;;7.30;3.60;;;;;;;23.26;58.17;95772.41;5056381;28;20041;-78
2022/05/16 12:13:28;;;;;;;4.70;3.33;;;;;;;23.39;60.08;95766.94;5055236;28;20052;-78